Time;durP1;ratioP1;P1;durP2;ratioP2;P2;SDS_P1;SDS_P2;PMS_P1;PMS_P2;Temp;Humidity;BMP_temperature;BMP_pressure;BME280_temperature;BME280_humidity;BME280_pressure;Samples;Min_cycle;Max_cycle;Signal;HPM_P1;HPM_P2
2022/12/10 00:00:06;;;;;;;16.27;10.57;;;;;;;;;;5047618;28;20185;-59
2022/12/10 00:02:32;;;;;;;17.90;10.63;;;;;;;;;;5047560;28;20704;-58
2022/12/10 00:05:04;;;;;;;20.03;12.20;;;;;;;;;;5031843;28;20251;-60
2022/12/10 00:07:30;;;;;;;17.10;11.10;;;;;;;;;;5035914;28;20217;-60
2022/12/10 00:09:56;;;;;;;15.53;10.23;;;;;;;;;;5037234;28;20408;-58
2022/12/10 00:12:22;;;;;;;16.73;10.90;;;;;;;;;;5038483;28;20584;-59
2022/12/10 00:14:48;;;;;;;16.10;11.47;;;;;;;;;;5043882;28;20177;-58
2022/12/10 00:17:14;;;;;;;19.63;11.60;;;;;;;;;;5044048;28;20173;-58
2022/12/10 00:19:40;;;;;;;17.27;10.67;;;;;;;;;;5042869;28;20447;-59
2022/12/10 00:22:06;;;;;;;16.50;10.60;;;;;;;;;;5041221;28;20194;-59
2022/12/10 00:24:32;;;;;;;17.93;11.70;;;;;;;;;;5042139;28;20646;-58
2022/12/10 00:26:58;;;;;;;20.93;13.03;;;;;;;;;;5041103;28;20239;-58
2022/12/10 00:29:24;;;;;;;18.47;11.83;;;;;;;;;;5036565;28;20463;-59
2022/12/10 00:31:50;;;;;;;18.93;11.87;;;;;;;;;;5045388;28;20493;-59
2022/12/10 00:34:16;;;;;;;15.20;10.43;;;;;;;;;;5039572;28;20435;-59
2022/12/10 00:36:47;;;;;;;20.13;11.30;;;;;;;;;;5025330;28;20435;-59
2022/12/10 00:39:14;;;;;;;19.60;12.17;;;;;;;;;;5041067;28;21240;-59
2022/12/10 00:41:41;;;;;;;17.73;11.93;;;;;;;;;;5044755;28;20439;-59
2022/12/10 00:44:07;;;;;;;16.10;11.00;;;;;;;;;;5027896;28;20436;-58
2022/12/10 00:46:33;;;;;;;19.90;11.73;;;;;;;;;;5044684;28;20911;-58
2022/12/10 00:48:59;;;;;;;15.40;11.30;;;;;;;;;;5041601;28;20240;-59
2022/12/10 00:51:26;;;;;;;17.10;11.63;;;;;;;;;;5053064;28;20178;-59
2022/12/10 00:53:53;;;;;;;19.13;12.37;;;;;;;;;;5041798;28;20185;-59
2022/12/10 00:56:21;;;;;;;18.77;12.50;;;;;;;;;;5038342;28;21344;-58
2022/12/10 00:58:48;;;;;;;18.37;11.27;;;;;;;;;;5035516;28;20529;-59
2022/12/10 01:01:16;;;;;;;19.30;10.77;;;;;;;;;;5035418;28;21041;-60
2022/12/10 01:03:43;;;;;;;18.70;10.83;;;;;;;;;;5038915;28;20927;-59
2022/12/10 01:06:14;;;;;;;19.93;11.70;;;;;;;;;;5040751;28;20478;-59
2022/12/10 01:08:41;;;;;;;20.43;11.83;;;;;;;;;;5026863;28;20435;-59
2022/12/10 01:11:07;;;;;;;16.40;11.10;;;;;;;;;;5043489;28;20424;-58
2022/12/10 01:13:33;;;;;;;19.90;11.63;;;;;;;;;;5038263;28;20471;-60
2022/12/10 01:16:04;;;;;;;18.07;11.10;;;;;;;;;;5043511;28;20628;-58
2022/12/10 01:18:31;;;;;;;21.07;11.43;;;;;;;;;;5044252;28;20431;-59
2022/12/10 01:21:01;;;;;;;18.93;10.67;;;;;;;;;;5044512;28;20432;-59
2022/12/10 01:23:27;;;;;;;17.97;11.90;;;;;;;;;;5044787;28;20831;-59
2022/12/10 01:25:53;;;;;;;15.17;10.03;;;;;;;;;;5026502;28;20533;-59
2022/12/10 01:28:19;;;;;;;18.97;12.27;;;;;;;;;;5040261;28;20432;-58
2022/12/10 01:30:52;;;;;;;17.53;10.70;;;;;;;;;;5036419;28;20485;-57
2022/12/10 01:33:18;;;;;;;16.97;11.00;;;;;;;;;;5045534;28;20745;-59
2022/12/10 01:35:44;;;;;;;17.53;11.53;;;;;;;;;;5041429;28;21001;-58
2022/12/10 01:38:10;;;;;;;16.07;10.83;;;;;;;;;;5024639;28;20427;-59
2022/12/10 01:40:39;;;;;;;16.10;10.53;;;;;;;;;;5045640;28;20450;-59
2022/12/10 01:43:06;;;;;;;18.70;11.50;;;;;;;;;;5038360;28;20961;-58
2022/12/10 01:45:32;;;;;;;18.60;11.37;;;;;;;;;;5042570;28;20466;-59
2022/12/10 01:47:58;;;;;;;16.23;11.37;;;;;;;;;;5039476;28;20537;-58
2022/12/10 01:50:24;;;;;;;17.27;10.67;;;;;;;;;;5042529;28;20521;-58
2022/12/10 01:52:50;;;;;;;18.63;11.47;;;;;;;;;;5034658;28;20186;-59
2022/12/10 01:55:55;;;;;;;16.30;9.90;;;;;;;;;;5044571;28;20484;-58
2022/12/10 01:58:21;;;;;;;14.67;9.70;;;;;;;;;;4939092;29;20772;-58
2022/12/10 02:00:52;;;;;;;17.07;11.00;;;;;;;;;;4941943;28;20451;-59
2022/12/10 02:03:24;;;;;;;22.07;11.23;;;;;;;;;;4984129;28;20980;-59
2022/12/10 02:06:12;;;;;;;18.13;12.37;;;;;;;;;;5036109;28;20443;-58
2022/12/10 02:08:53;;;;;;;16.53;11.40;;;;;;;;;;5044674;28;20437;-59
2022/12/10 02:11:42;;;;;;;17.97;10.77;;;;;;;;;;5044402;28;20587;-58
2022/12/10 02:14:15;;;;;;;20.40;11.27;;;;;;;;;;5044269;28;20427;-59
2022/12/10 02:16:45;;;;;;;20.40;12.23;;;;;;;;;;5044291;28;20436;-58
2022/12/10 02:19:11;;;;;;;15.33;10.87;;;;;;;;;;5045542;28;20828;-58
2022/12/10 02:21:39;;;;;;;18.97;12.73;;;;;;;;;;5045476;28;20439;-59
2022/12/10 02:24:07;;;;;;;19.03;11.97;;;;;;;;;;5045748;28;20193;-58
2022/12/10 02:26:50;;;;;;;19.90;12.63;;;;;;;;;;5034045;28;21009;-58
2022/12/10 02:29:18;;;;;;;19.73;12.37;;;;;;;;;;5021237;28;20574;-59
2022/12/10 02:31:46;;;;;;;19.30;11.93;;;;;;;;;;5045219;28;20431;-59
2022/12/10 02:34:14;;;;;;;20.97;11.57;;;;;;;;;;5034944;28;20431;-57
2022/12/10 02:36:42;;;;;;;20.33;12.30;;;;;;;;;;5045760;28;20969;-58
2022/12/10 02:39:09;;;;;;;21.43;12.03;;;;;;;;;;5044054;28;20828;-58
2022/12/10 02:41:37;;;;;;;18.47;12.63;;;;;;;;;;5041107;28;20439;-58
2022/12/10 02:44:04;;;;;;;19.57;12.10;;;;;;;;;;5001932;28;20444;-60
2022/12/10 02:46:33;;;;;;;22.13;13.10;;;;;;;;;;5044712;28;20438;-58
2022/12/10 02:48:59;;;;;;;20.93;12.10;;;;;;;;;;5045063;28;20987;-58
2022/12/10 02:51:25;;;;;;;20.57;12.40;;;;;;;;;;5047552;28;20922;-59
2022/12/10 02:54:01;;;;;;;17.47;11.53;;;;;;;;;;5038755;28;20510;-58
2022/12/10 02:56:31;;;;;;;18.33;11.37;;;;;;;;;;5037202;28;20436;-59
2022/12/10 02:59:00;;;;;;;18.40;12.37;;;;;;;;;;5022419;28;20428;-59
2022/12/10 03:01:39;;;;;;;21.23;13.57;;;;;;;;;;5036034;28;20446;-58
2022/12/10 03:04:17;;;;;;;18.87;11.30;;;;;;;;;;5029880;28;20435;-58
2022/12/10 03:06:51;;;;;;;16.87;11.10;;;;;;;;;;5038416;28;20426;-57
2022/12/10 03:09:23;;;;;;;21.17;11.50;;;;;;;;;;5039604;28;20455;-58
2022/12/10 03:11:50;;;;;;;15.97;11.33;;;;;;;;;;5027900;28;20957;-58
2022/12/10 03:14:19;;;;;;;20.67;13.47;;;;;;;;;;5052375;28;21205;-60
2022/12/10 03:16:49;;;;;;;23.33;13.77;;;;;;;;;;5042898;28;20419;-59
2022/12/10 03:19:17;;;;;;;18.57;11.93;;;;;;;;;;5037403;28;20560;-58
2022/12/10 03:21:45;;;;;;;22.03;12.67;;;;;;;;;;5047727;28;20920;-59
2022/12/10 03:24:11;;;;;;;22.90;13.23;;;;;;;;;;5056153;28;20435;-57
2022/12/10 03:26:39;;;;;;;20.07;12.60;;;;;;;;;;5053533;28;20810;-58
2022/12/10 03:29:07;;;;;;;18.93;11.97;;;;;;;;;;5024101;28;20512;-57
2022/12/10 03:31:35;;;;;;;19.10;12.73;;;;;;;;;;5051913;28;20438;-58
2022/12/10 03:34:01;;;;;;;22.23;12.20;;;;;;;;;;5043813;28;20523;-58
2022/12/10 03:36:28;;;;;;;20.10;12.33;;;;;;;;;;5050890;28;20423;-59
2022/12/10 03:38:54;;;;;;;23.53;12.73;;;;;;;;;;5048033;28;20785;-58
2022/12/10 03:41:20;;;;;;;20.27;13.33;;;;;;;;;;5047144;28;20459;-58
2022/12/10 03:43:56;;;;;;;19.47;12.93;;;;;;;;;;5057379;28;20852;-58
2022/12/10 03:46:27;;;;;;;24.33;13.40;;;;;;;;;;5062016;28;20770;-58
2022/12/10 03:48:53;;;;;;;22.50;13.33;;;;;;;;;;5047089;28;20475;-58
2022/12/10 03:51:19;;;;;;;22.53;13.00;;;;;;;;;;5045300;28;20425;-58
2022/12/10 03:53:45;;;;;;;21.97;13.43;;;;;;;;;;5038290;28;21175;-58
2022/12/10 03:56:12;;;;;;;22.03;12.97;;;;;;;;;;5046455;28;20436;-58
2022/12/10 03:58:38;;;;;;;19.30;11.87;;;;;;;;;;5047870;28;20177;-58
2022/12/10 04:01:04;;;;;;;20.03;13.13;;;;;;;;;;5045498;28;20440;-58
2022/12/10 04:03:30;;;;;;;22.60;12.47;;;;;;;;;;5045303;28;20918;-57
2022/12/10 04:06:08;;;;;;;22.80;13.20;;;;;;;;;;5041633;28;20979;-57
2022/12/10 04:08:34;;;;;;;21.67;11.60;;;;;;;;;;5030623;28;20434;-58
2022/12/10 04:11:07;;;;;;;25.67;13.30;;;;;;;;;;5028828;28;20493;-59
2022/12/10 04:16:28;;;;;;;19.50;11.90;;;;;;;;;;5047045;28;20554;-59
2022/12/10 04:18:55;;;;;;;24.80;12.47;;;;;;;;;;5049354;28;20492;-57
2022/12/10 04:26:52;;;;;;;20.23;12.57;;;;;;;;;;5043482;28;20481;-58
2022/12/10 04:29:19;;;;;;;21.40;13.07;;;;;;;;;;5045559;28;20494;-58
2022/12/10 04:31:45;;;;;;;21.73;14.33;;;;;;;;;;5046730;28;20431;-58
2022/12/10 04:34:11;;;;;;;17.93;11.90;;;;;;;;;;5045187;28;20420;-58
2022/12/10 04:36:37;;;;;;;21.00;12.30;;;;;;;;;;5045354;28;20435;-57
2022/12/10 04:39:03;;;;;;;20.07;11.37;;;;;;;;;;5045123;28;20501;-58
2022/12/10 04:41:30;;;;;;;19.67;13.13;;;;;;;;;;5043998;28;20474;-58
2022/12/10 04:43:56;;;;;;;23.90;12.63;;;;;;;;;;5046899;28;20470;-58
2022/12/10 04:46:22;;;;;;;18.30;12.73;;;;;;;;;;5046577;28;20398;-58
2022/12/10 04:48:48;;;;;;;19.77;12.27;;;;;;;;;;5039414;28;21099;-58
2022/12/10 04:51:14;;;;;;;19.40;12.07;;;;;;;;;;5044651;28;20431;-58
2022/12/10 04:53:40;;;;;;;18.53;10.67;;;;;;;;;;5044369;28;20439;-58
2022/12/10 04:56:06;;;;;;;18.33;11.50;;;;;;;;;;5046087;28;20444;-58
2022/12/10 04:58:33;;;;;;;21.57;12.70;;;;;;;;;;5041838;28;20863;-58
2022/12/10 05:01:07;;;;;;;19.67;11.10;;;;;;;;;;5044033;28;20455;-59
2022/12/10 05:03:33;;;;;;;19.77;12.70;;;;;;;;;;5025744;28;21322;-58
2022/12/10 05:06:03;;;;;;;18.30;11.07;;;;;;;;;;5046377;28;20431;-58
2022/12/10 05:08:29;;;;;;;21.93;11.47;;;;;;;;;;5041737;28;20443;-58
2022/12/10 05:10:56;;;;;;;16.90;11.10;;;;;;;;;;5043796;28;20974;-59
2022/12/10 05:13:22;;;;;;;21.23;12.30;;;;;;;;;;5044867;28;20474;-58
2022/12/10 05:15:48;;;;;;;18.70;11.00;;;;;;;;;;5026928;28;20430;-58
2022/12/10 05:18:14;;;;;;;18.40;11.63;;;;;;;;;;5041143;28;20514;-58
2022/12/10 05:20:40;;;;;;;19.13;12.23;;;;;;;;;;5044723;28;20447;-58
2022/12/10 05:26:04;;;;;;;19.17;11.03;;;;;;;;;;5045290;28;20501;-58
2022/12/10 05:28:31;;;;;;;19.90;11.43;;;;;;;;;;5044507;28;20937;-58
2022/12/10 05:30:58;;;;;;;15.60;9.93;;;;;;;;;;5044087;28;20623;-59
2022/12/10 05:33:24;;;;;;;17.43;11.07;;;;;;;;;;5042156;28;20418;-58
2022/12/10 05:35:54;;;;;;;16.50;11.67;;;;;;;;;;5015298;28;20791;-59
2022/12/10 05:38:20;;;;;;;18.47;11.03;;;;;;;;;;5045185;28;21009;-58
2022/12/10 05:40:47;;;;;;;15.80;10.90;;;;;;;;;;5044735;28;21009;-58
2022/12/10 05:43:28;;;;;;;21.93;11.53;;;;;;;;;;5044351;28;20480;-58
2022/12/10 05:45:54;;;;;;;19.53;11.13;;;;;;;;;;5025715;28;20996;-59
2022/12/10 05:48:41;;;;;;;20.60;11.17;;;;;;;;;;5048126;28;20502;-57
2022/12/10 05:51:14;;;;;;;21.80;10.93;;;;;;;;;;5044460;28;20426;-57
2022/12/10 05:53:41;;;;;;;16.83;11.23;;;;;;;;;;5045626;28;20415;-59
2022/12/10 05:56:09;;;;;;;19.20;10.97;;;;;;;;;;5045293;28;20760;-58
2022/12/10 05:58:36;;;;;;;14.90;9.90;;;;;;;;;;5045176;28;20766;-58
2022/12/10 06:01:06;;;;;;;20.47;10.83;;;;;;;;;;5036415;28;20996;-58
2022/12/10 06:03:32;;;;;;;18.50;10.80;;;;;;;;;;5039463;28;20519;-58
2022/12/10 06:05:58;;;;;;;17.03;10.90;;;;;;;;;;5043046;28;20689;-59
2022/12/10 06:08:24;;;;;;;15.47;10.30;;;;;;;;;;5043765;28;20415;-58
2022/12/10 06:10:50;;;;;;;16.73;10.40;;;;;;;;;;5043923;28;21034;-58
2022/12/10 06:13:16;;;;;;;21.63;11.83;;;;;;;;;;5041518;28;20831;-57
2022/12/10 06:15:42;;;;;;;17.57;11.13;;;;;;;;;;5043344;28;20506;-58
2022/12/10 06:18:08;;;;;;;15.37;10.23;;;;;;;;;;5044732;28;20772;-58
2022/12/10 06:20:37;;;;;;;16.83;10.90;;;;;;;;;;5055853;28;20426;-57
2022/12/10 06:23:03;;;;;;;16.93;10.67;;;;;;;;;;5050236;28;20424;-59
2022/12/10 06:25:29;;;;;;;16.43;10.70;;;;;;;;;;5042953;28;20423;-58
2022/12/10 06:27:55;;;;;;;17.00;11.77;;;;;;;;;;5049749;28;21072;-58
2022/12/10 06:30:21;;;;;;;19.33;11.07;;;;;;;;;;5046995;28;20461;-59
2022/12/10 06:32:47;;;;;;;20.67;11.63;;;;;;;;;;5052682;28;20474;-59
2022/12/10 06:35:14;;;;;;;20.93;12.33;;;;;;;;;;5049231;28;20493;-59
2022/12/10 06:37:40;;;;;;;21.63;11.90;;;;;;;;;;5044063;28;20913;-58
2022/12/10 06:40:06;;;;;;;19.47;11.43;;;;;;;;;;5048163;28;21144;-59
2022/12/10 06:42:32;;;;;;;15.27;10.23;;;;;;;;;;5045376;28;20431;-59
2022/12/10 06:44:58;;;;;;;17.87;11.23;;;;;;;;;;5047543;28;20702;-58
2022/12/10 06:47:24;;;;;;;22.43;11.77;;;;;;;;;;5054816;28;20782;-57
2022/12/10 06:49:50;;;;;;;15.67;10.50;;;;;;;;;;5032176;28;20476;-58
2022/12/10 06:52:16;;;;;;;18.57;11.73;;;;;;;;;;5027957;28;20424;-58
2022/12/10 06:54:42;;;;;;;18.00;10.97;;;;;;;;;;5026032;28;20380;-57
2022/12/10 06:57:08;;;;;;;20.33;13.43;;;;;;;;;;5029159;28;20787;-58
2022/12/10 06:59:34;;;;;;;20.87;13.10;;;;;;;;;;5027303;28;20886;-58
2022/12/10 07:02:00;;;;;;;20.53;11.97;;;;;;;;;;5031064;28;20463;-58
2022/12/10 07:04:26;;;;;;;16.50;11.03;;;;;;;;;;5036307;28;20882;-59
2022/12/10 07:06:52;;;;;;;21.33;12.23;;;;;;;;;;5036554;28;20562;-57
2022/12/10 07:09:18;;;;;;;20.47;12.53;;;;;;;;;;5028056;28;20466;-57
2022/12/10 07:11:45;;;;;;;19.67;10.77;;;;;;;;;;5026815;28;20479;-58
2022/12/10 07:14:14;;;;;;;25.37;12.43;;;;;;;;;;5028266;28;20440;-58
2022/12/10 07:16:40;;;;;;;20.67;12.33;;;;;;;;;;5027024;28;20920;-57
2022/12/10 07:19:06;;;;;;;21.47;12.30;;;;;;;;;;5027148;28;20429;-58
2022/12/10 07:21:34;;;;;;;20.97;12.03;;;;;;;;;;5028083;28;20496;-58
2022/12/10 07:24:03;;;;;;;21.37;11.63;;;;;;;;;;5028350;28;20423;-59
2022/12/10 07:26:30;;;;;;;21.03;12.73;;;;;;;;;;5027904;28;20405;-58
2022/12/10 07:28:56;;;;;;;21.03;11.87;;;;;;;;;;5005069;28;20452;-58
2022/12/10 07:31:23;;;;;;;20.87;12.80;;;;;;;;;;5014940;28;20437;-59
2022/12/10 07:33:50;;;;;;;22.37;12.27;;;;;;;;;;5010950;28;20765;-59
2022/12/10 07:36:16;;;;;;;19.20;12.47;;;;;;;;;;5026683;28;20405;-58
2022/12/10 07:38:42;;;;;;;19.93;12.00;;;;;;;;;;5027331;28;20449;-58
2022/12/10 07:41:09;;;;;;;21.93;12.73;;;;;;;;;;5027974;28;20462;-58
2022/12/10 07:43:36;;;;;;;23.27;12.50;;;;;;;;;;5040093;28;20400;-58
2022/12/10 07:46:10;;;;;;;21.13;12.80;;;;;;;;;;5022462;28;20921;-58
2022/12/10 07:48:36;;;;;;;26.17;13.33;;;;;;;;;;5030211;28;20449;-58
2022/12/10 07:51:03;;;;;;;22.40;12.60;;;;;;;;;;5047320;28;20820;-57
2022/12/10 07:53:29;;;;;;;22.40;12.70;;;;;;;;;;5046400;28;20438;-58
2022/12/10 07:55:55;;;;;;;23.50;13.63;;;;;;;;;;5050091;28;20420;-57
2022/12/10 07:58:21;;;;;;;25.33;13.37;;;;;;;;;;5047309;28;20744;-59
2022/12/10 08:00:47;;;;;;;21.97;13.47;;;;;;;;;;5028710;28;20388;-58
2022/12/10 08:03:13;;;;;;;21.27;13.00;;;;;;;;;;5047137;28;20987;-58
2022/12/10 08:05:39;;;;;;;23.27;13.87;;;;;;;;;;5051284;28;20416;-58
2022/12/10 08:08:06;;;;;;;26.43;14.73;;;;;;;;;;5021186;28;20439;-58
2022/12/10 08:10:38;;;;;;;19.83;13.20;;;;;;;;;;5035748;28;20470;-58
2022/12/10 08:13:05;;;;;;;21.73;12.60;;;;;;;;;;5042598;28;20419;-58
2022/12/10 08:15:31;;;;;;;20.97;13.37;;;;;;;;;;5047191;28;20515;-58
2022/12/10 08:17:57;;;;;;;23.20;13.47;;;;;;;;;;5046475;28;20428;-58
2022/12/10 08:20:24;;;;;;;21.60;13.83;;;;;;;;;;5045545;28;20742;-58
2022/12/10 08:22:50;;;;;;;21.87;12.80;;;;;;;;;;5040571;28;21234;-59
2022/12/10 08:25:16;;;;;;;23.17;13.57;;;;;;;;;;5050363;28;20516;-58
2022/12/10 08:27:42;;;;;;;25.53;13.47;;;;;;;;;;5047588;28;21025;-57
2022/12/10 08:30:08;;;;;;;20.90;12.83;;;;;;;;;;5040589;28;20460;-59
2022/12/10 08:32:34;;;;;;;19.60;11.63;;;;;;;;;;5032672;28;20475;-58
2022/12/10 08:35:00;;;;;;;21.43;12.67;;;;;;;;;;5048091;28;20847;-58
2022/12/10 08:37:26;;;;;;;21.80;12.97;;;;;;;;;;5044950;28;20987;-57
2022/12/10 08:39:52;;;;;;;25.43;14.53;;;;;;;;;;5036758;28;20437;-58
2022/12/10 08:42:18;;;;;;;30.17;15.23;;;;;;;;;;5022173;28;20441;-57
2022/12/10 08:44:44;;;;;;;30.30;16.73;;;;;;;;;;5034114;28;20444;-57
2022/12/10 08:47:10;;;;;;;22.10;12.93;;;;;;;;;;5042944;28;20173;-58
2022/12/10 08:49:37;;;;;;;30.03;15.90;;;;;;;;;;5033817;28;20998;-57
2022/12/10 08:52:03;;;;;;;22.03;13.60;;;;;;;;;;5026545;28;20938;-58
2022/12/10 08:54:29;;;;;;;21.67;13.63;;;;;;;;;;5023412;28;20424;-58
2022/12/10 08:56:55;;;;;;;30.43;15.17;;;;;;;;;;5017221;28;20779;-58
2022/12/10 08:59:21;;;;;;;25.97;15.23;;;;;;;;;;5006141;28;20421;-58
2022/12/10 09:01:47;;;;;;;23.77;14.67;;;;;;;;;;5038440;28;20427;-58
2022/12/10 09:04:15;;;;;;;24.67;13.27;;;;;;;;;;5016481;28;20491;-58
2022/12/10 09:06:41;;;;;;;26.10;13.67;;;;;;;;;;5025453;28;20415;-58
2022/12/10 09:09:07;;;;;;;27.47;13.23;;;;;;;;;;5040759;28;20460;-57
2022/12/10 09:11:34;;;;;;;23.03;13.73;;;;;;;;;;5035322;28;20439;-58
2022/12/10 09:14:00;;;;;;;22.60;13.87;;;;;;;;;;5046535;28;20404;-58
2022/12/10 09:16:30;;;;;;;23.63;14.00;;;;;;;;;;5046116;28;20408;-58
2022/12/10 09:18:56;;;;;;;23.57;14.00;;;;;;;;;;5046241;28;20446;-57
2022/12/10 09:21:23;;;;;;;22.53;12.93;;;;;;;;;;5040504;28;20499;-57
2022/12/10 09:23:51;;;;;;;20.97;12.47;;;;;;;;;;5027088;28;20455;-57
2022/12/10 09:26:17;;;;;;;25.90;12.80;;;;;;;;;;5031107;28;20503;-57
2022/12/10 09:28:43;;;;;;;26.33;14.50;;;;;;;;;;5045952;28;20802;-58
2022/12/10 09:31:10;;;;;;;24.93;14.23;;;;;;;;;;5042895;28;20803;-57
2022/12/10 09:33:37;;;;;;;29.47;15.50;;;;;;;;;;5023695;28;20443;-57
2022/12/10 09:36:07;;;;;;;27.33;14.13;;;;;;;;;;5024817;28;20443;-58
2022/12/10 09:38:37;;;;;;;23.80;13.77;;;;;;;;;;5026132;28;20416;-58
2022/12/10 09:41:04;;;;;;;22.63;13.47;;;;;;;;;;5025458;28;21015;-58
2022/12/10 09:43:40;;;;;;;25.10;13.70;;;;;;;;;;5033126;28;20449;-57
2022/12/10 09:46:14;;;;;;;26.50;13.53;;;;;;;;;;5045957;28;20396;-57
2022/12/10 09:48:40;;;;;;;22.93;13.23;;;;;;;;;;5048633;28;20814;-58
2022/12/10 09:51:12;;;;;;;31.57;13.30;;;;;;;;;;5054870;28;20459;-57
2022/12/10 09:53:39;;;;;;;25.93;14.20;;;;;;;;;;5052788;28;20176;-58
2022/12/10 09:56:05;;;;;;;24.77;12.93;;;;;;;;;;5063513;28;20960;-57
2022/12/10 09:58:32;;;;;;;25.40;13.67;;;;;;;;;;5070047;28;21039;-57
2022/12/10 10:00:59;;;;;;;23.00;12.57;;;;;;;;;;5069460;28;20407;-57
2022/12/10 10:03:25;;;;;;;24.27;13.33;;;;;;;;;;5070273;28;20903;-59
2022/12/10 10:05:53;;;;;;;27.77;14.43;;;;;;;;;;5060341;28;20463;-57
2022/12/10 10:08:22;;;;;;;25.73;15.03;;;;;;;;;;5049344;28;20454;-58
2022/12/10 10:10:48;;;;;;;25.27;13.63;;;;;;;;;;5042608;28;20565;-58
2022/12/10 10:13:26;;;;;;;23.47;12.63;;;;;;;;;;5049232;28;20770;-58
2022/12/10 10:15:52;;;;;;;20.57;13.30;;;;;;;;;;5055054;28;20492;-58
2022/12/10 10:18:24;;;;;;;23.77;12.77;;;;;;;;;;5069695;28;20818;-58
2022/12/10 10:20:50;;;;;;;24.50;13.70;;;;;;;;;;5062037;28;20424;-58
2022/12/10 10:23:17;;;;;;;22.03;13.80;;;;;;;;;;5049588;28;20657;-57
2022/12/10 10:25:43;;;;;;;25.87;13.87;;;;;;;;;;5048340;28;20431;-58
2022/12/10 10:28:13;;;;;;;25.30;12.23;;;;;;;;;;5053697;28;20433;-57
2022/12/10 10:30:42;;;;;;;21.47;12.20;;;;;;;;;;5064916;28;20473;-59
2022/12/10 10:33:10;;;;;;;22.33;11.83;;;;;;;;;;5051488;28;20476;-57
2022/12/10 10:35:42;;;;;;;18.70;12.23;;;;;;;;;;5066075;28;20805;-59
2022/12/10 10:38:14;;;;;;;19.77;12.40;;;;;;;;;;5029169;28;20392;-58
2022/12/10 10:40:41;;;;;;;20.70;12.23;;;;;;;;;;5037650;28;20920;-57
2022/12/10 10:43:13;;;;;;;20.17;11.63;;;;;;;;;;5049137;28;20893;-58
2022/12/10 10:45:41;;;;;;;20.07;12.97;;;;;;;;;;5047399;28;20411;-58
2022/12/10 10:48:10;;;;;;;21.03;12.77;;;;;;;;;;5068807;28;20434;-58
2022/12/10 10:50:38;;;;;;;24.57;12.03;;;;;;;;;;5058936;28;20479;-58
2022/12/10 10:53:21;;;;;;;19.80;12.50;;;;;;;;;;5031121;28;20415;-58
2022/12/10 10:55:47;;;;;;;19.60;11.57;;;;;;;;;;5065971;28;20438;-58
2022/12/10 10:58:20;;;;;;;18.53;10.83;;;;;;;;;;5050873;28;20414;-57
2022/12/10 11:01:01;;;;;;;20.03;11.33;;;;;;;;;;5068835;28;20527;-58
2022/12/10 11:03:28;;;;;;;17.67;11.30;;;;;;;;;;5067969;28;20398;-57
2022/12/10 11:05:56;;;;;;;21.17;12.03;;;;;;;;;;5047795;28;20449;-58
2022/12/10 11:08:24;;;;;;;18.37;11.20;;;;;;;;;;5044543;28;20427;-58
2022/12/10 11:10:52;;;;;;;23.37;13.10;;;;;;;;;;5014556;28;20822;-59
2022/12/10 11:13:26;;;;;;;25.57;11.67;;;;;;;;;;5047950;28;20461;-58
2022/12/10 11:15:58;;;;;;;17.20;10.80;;;;;;;;;;5032616;28;20806;-60
2022/12/10 11:18:36;;;;;;;19.73;12.50;;;;;;;;;;5038405;28;20474;-58
2022/12/10 11:21:02;;;;;;;19.53;12.07;;;;;;;;;;5046711;28;20431;-58
2022/12/10 11:23:29;;;;;;;18.43;11.17;;;;;;;;;;5064427;28;20437;-58
2022/12/10 11:25:59;;;;;;;17.63;11.30;;;;;;;;;;5045739;28;20527;-58
2022/12/10 11:28:37;;;;;;;20.57;11.13;;;;;;;;;;5045948;28;20439;-60
2022/12/10 11:31:13;;;;;;;20.13;11.67;;;;;;;;;;5047007;28;20477;-58
2022/12/10 11:33:46;;;;;;;17.67;10.90;;;;;;;;;;5048313;28;20438;-58
2022/12/10 11:36:25;;;;;;;16.30;10.33;;;;;;;;;;5027811;28;20929;-58
2022/12/10 11:38:59;;;;;;;21.33;12.73;;;;;;;;;;5028460;28;20437;-59
2022/12/10 11:41:31;;;;;;;21.40;11.67;;;;;;;;;;5057963;28;20996;-60
2022/12/10 11:44:00;;;;;;;20.10;10.77;;;;;;;;;;5047190;28;20412;-59
2022/12/10 11:46:51;;;;;;;18.37;11.47;;;;;;;;;;5046419;28;20461;-58
2022/12/10 11:49:17;;;;;;;19.73;12.07;;;;;;;;;;5041373;28;20544;-58
2022/12/10 11:51:43;;;;;;;19.40;12.27;;;;;;;;;;5027573;28;20409;-58
2022/12/10 11:54:12;;;;;;;18.40;11.67;;;;;;;;;;4996098;28;20174;-58
2022/12/10 11:56:40;;;;;;;18.23;11.60;;;;;;;;;;5024915;28;20166;-58
2022/12/10 11:59:16;;;;;;;17.53;11.97;;;;;;;;;;5019937;28;20461;-61
2022/12/10 12:01:51;;;;;;;19.33;12.13;;;;;;;;;;5010317;28;20413;-58
2022/12/10 12:04:36;;;;;;;15.37;10.33;;;;;;;;;;4999842;28;20432;-60
2022/12/10 12:07:09;;;;;;;16.70;10.23;;;;;;;;;;5019292;28;21081;-59
2022/12/10 12:09:35;;;;;;;19.37;10.80;;;;;;;;;;5023418;28;20467;-59
2022/12/10 12:12:13;;;;;;;17.97;11.13;;;;;;;;;;5024741;28;20994;-58
2022/12/10 12:14:45;;;;;;;23.77;12.80;;;;;;;;;;4999584;28;20177;-58
2022/12/10 12:17:19;;;;;;;20.00;10.67;;;;;;;;;;5019269;28;21002;-59
2022/12/10 12:19:51;;;;;;;19.30;12.20;;;;;;;;;;5016091;28;20437;-59
2022/12/10 12:22:37;;;;;;;18.03;11.13;;;;;;;;;;5023516;28;20405;-57
2022/12/10 12:25:22;;;;;;;25.00;14.13;;;;;;;;;;5020899;28;20416;-58
2022/12/10 12:27:53;;;;;;;17.50;10.90;;;;;;;;;;5019788;28;20951;-59
2022/12/10 12:30:21;;;;;;;19.37;11.73;;;;;;;;;;5023105;28;20464;-58
2022/12/10 12:32:53;;;;;;;19.60;10.50;;;;;;;;;;4998359;28;20457;-58
2022/12/10 12:35:19;;;;;;;18.30;10.63;;;;;;;;;;5025049;28;20478;-58
2022/12/10 12:37:51;;;;;;;17.27;10.20;;;;;;;;;;5004826;28;20501;-58
2022/12/10 12:40:36;;;;;;;20.07;10.57;;;;;;;;;;5024055;28;20397;-58
2022/12/10 12:43:04;;;;;;;18.43;10.67;;;;;;;;;;5017116;28;20428;-57
2022/12/10 12:45:46;;;;;;;16.50;10.20;;;;;;;;;;5007961;28;20953;-58
2022/12/10 12:48:17;;;;;;;16.50;11.03;;;;;;;;;;5004685;28;20496;-58
2022/12/10 12:51:00;;;;;;;21.57;11.90;;;;;;;;;;5034675;28;20478;-56
2022/12/10 12:53:27;;;;;;;17.43;10.63;;;;;;;;;;5041187;28;20968;-57
2022/12/10 12:55:53;;;;;;;17.47;10.30;;;;;;;;;;5043924;28;20796;-58
2022/12/10 12:58:41;;;;;;;21.80;12.13;;;;;;;;;;5022098;28;20899;-57
2022/12/10 13:01:19;;;;;;;17.17;10.63;;;;;;;;;;5025287;28;20466;-58
2022/12/10 13:03:46;;;;;;;18.50;10.97;;;;;;;;;;5014725;28;20432;-57
2022/12/10 13:06:13;;;;;;;18.50;11.00;;;;;;;;;;5031439;28;20869;-57
2022/12/10 13:08:43;;;;;;;18.77;11.33;;;;;;;;;;5017333;28;20526;-56
2022/12/10 13:11:12;;;;;;;18.87;11.20;;;;;;;;;;5043101;28;20836;-57
2022/12/10 13:14:01;;;;;;;18.23;9.77;;;;;;;;;;5041248;28;20942;-56
2022/12/10 13:16:41;;;;;;;17.03;10.73;;;;;;;;;;5037576;28;20462;-56
2022/12/10 13:19:16;;;;;;;13.83;10.33;;;;;;;;;;5038563;28;20433;-56
2022/12/10 13:21:51;;;;;;;13.73;9.27;;;;;;;;;;5037151;28;20509;-57
2022/12/10 13:24:21;;;;;;;14.73;10.07;;;;;;;;;;5045870;28;20391;-56
2022/12/10 13:27:06;;;;;;;14.10;9.80;;;;;;;;;;5041583;28;20836;-57
2022/12/10 13:29:47;;;;;;;16.17;9.50;;;;;;;;;;5030608;28;20496;-57
2022/12/10 13:32:25;;;;;;;13.87;10.13;;;;;;;;;;5013860;28;21041;-58
2022/12/10 13:35:09;;;;;;;14.07;10.57;;;;;;;;;;5045314;28;20767;-57
2022/12/10 13:37:53;;;;;;;19.77;11.07;;;;;;;;;;5058594;28;20419;-58
2022/12/10 13:46:29;;;;;;;15.37;10.20;;;;;;;;;;5043612;28;20427;-59
2022/12/10 13:48:56;;;;;;;14.60;9.73;;;;;;;;;;5041308;28;20427;-58
2022/12/10 13:51:36;;;;;;;13.53;10.23;;;;;;;;;;5043815;28;20480;-58
2022/12/10 13:54:17;;;;;;;17.70;10.23;;;;;;;;;;5042439;28;20439;-60
2022/12/10 13:56:55;;;;;;;19.00;11.07;;;;;;;;;;5038619;28;20421;-57
2022/12/10 13:59:32;;;;;;;22.70;11.57;;;;;;;;;;5034810;28;20436;-58
2022/12/10 14:02:18;;;;;;;15.87;11.27;;;;;;;;;;5039434;28;21050;-57
2022/12/10 14:05:03;;;;;;;17.93;11.73;;;;;;;;;;5062546;28;20525;-56
2022/12/10 14:07:29;;;;;;;19.50;11.23;;;;;;;;;;5043359;28;20480;-57
2022/12/10 14:09:56;;;;;;;20.87;11.77;;;;;;;;;;5038040;28;20948;-58
2022/12/10 14:12:27;;;;;;;15.60;11.20;;;;;;;;;;5024780;28;20906;-57
2022/12/10 14:14:56;;;;;;;17.60;11.73;;;;;;;;;;5041718;28;20424;-57
2022/12/10 14:17:25;;;;;;;19.23;12.57;;;;;;;;;;5048152;28;20424;-57
2022/12/10 14:19:54;;;;;;;18.03;12.40;;;;;;;;;;5049092;28;20446;-58
2022/12/10 14:22:31;;;;;;;17.47;11.77;;;;;;;;;;5046553;28;20416;-57
2022/12/10 14:24:59;;;;;;;15.37;10.97;;;;;;;;;;5045841;28;20431;-56
2022/12/10 14:27:26;;;;;;;17.90;11.57;;;;;;;;;;5045706;28;20974;-57
2022/12/10 14:29:58;;;;;;;19.30;11.43;;;;;;;;;;5047942;28;20487;-56
2022/12/10 14:32:34;;;;;;;18.27;12.83;;;;;;;;;;5046611;28;20454;-56
2022/12/10 14:35:02;;;;;;;18.13;11.90;;;;;;;;;;5051688;28;20902;-57
2022/12/10 14:37:29;;;;;;;21.17;12.03;;;;;;;;;;5048318;28;20870;-56
2022/12/10 14:39:56;;;;;;;19.90;12.43;;;;;;;;;;5014206;28;20823;-56
2022/12/10 14:42:22;;;;;;;18.53;11.67;;;;;;;;;;5042157;28;20703;-57
2022/12/10 14:44:52;;;;;;;18.30;11.63;;;;;;;;;;5047932;28;20432;-57